createdAt,value
2019-01-25T00:01:27.251Z,150.77
2019-01-25T00:03:55.046Z,169.33
2019-01-25T00:06:23.100Z,163.30
2019-01-25T00:08:50.695Z,154.00
2019-01-25T00:11:18.644Z,157.33
2019-01-25T00:13:46.335Z,148.80
2019-01-25T00:16:14.022Z,155.50
2019-01-25T00:18:41.605Z,165.30
2019-01-25T00:21:09.282Z,160.57
2019-01-25T00:23:36.914Z,153.27
2019-01-25T00:26:04.909Z,156.43
2019-01-25T00:28:32.544Z,157.27
2019-01-25T00:31:00.463Z,158.13
2019-01-25T00:33:27.994Z,164.20
2019-01-25T00:35:55.564Z,156.13
2019-01-25T00:38:23.080Z,164.70
2019-01-25T00:40:51.606Z,142.77
2019-01-25T00:43:19.192Z,163.90
2019-01-25T00:45:46.716Z,160.53
2019-01-25T00:48:14.266Z,149.13
2019-01-25T00:50:41.812Z,149.40
2019-01-25T00:53:09.652Z,156.43
2019-01-25T00:55:37.273Z,156.27
2019-01-25T00:58:05.342Z,170.57
2019-01-25T01:00:33.055Z,146.10
2019-01-25T01:03:00.891Z,184.97
2019-01-25T01:05:28.341Z,164.97
2019-01-25T01:07:55.935Z,167.00
2019-01-25T01:10:24.115Z,160.47
2019-01-25T01:12:52.153Z,162.70
2019-01-25T01:15:20.126Z,163.80
2019-01-25T01:17:47.866Z,160.23
2019-01-25T01:20:17.224Z,154.80
2019-01-25T01:22:45.735Z,159.83
2019-01-25T01:25:14.418Z,159.20
2019-01-25T01:27:42.296Z,161.40
2019-01-25T01:30:22.368Z,163.63
2019-01-25T01:32:50.653Z,158.43
2019-01-25T01:35:18.406Z,152.30
2019-01-25T01:37:48.315Z,171.30
2019-01-25T01:40:22.407Z,151.23
2019-01-25T01:42:50.365Z,164.10
2019-01-25T01:45:18.374Z,156.30
2019-01-25T01:47:46.209Z,167.50
2019-01-25T01:50:15.090Z,153.97
2019-01-25T01:52:43.787Z,162.10
2019-01-25T01:55:11.641Z,155.37
2019-01-25T01:57:39.211Z,164.43
2019-01-25T02:00:12.051Z,163.77
2019-01-25T02:02:39.855Z,166.93
2019-01-25T02:05:07.623Z,157.13
2019-01-25T02:07:35.431Z,162.77
2019-01-25T02:10:05.125Z,158.93
2019-01-25T02:12:32.586Z,169.03
2019-01-25T02:14:59.997Z,159.23
2019-01-25T02:17:27.498Z,165.00
2019-01-25T02:19:55.089Z,161.37
2019-01-25T02:22:23.709Z,168.77
2019-01-25T02:24:51.344Z,155.67
2019-01-25T02:27:18.808Z,167.90
2019-01-25T02:29:46.381Z,160.07
2019-01-25T02:32:14.005Z,169.90
2019-01-25T02:34:41.355Z,157.97
2019-01-25T02:37:09.077Z,165.47
2019-01-25T02:39:36.562Z,156.83
2019-01-25T02:42:04.289Z,158.97
2019-01-25T02:44:31.860Z,154.13
2019-01-25T02:46:59.570Z,156.00
2019-01-25T02:49:27.081Z,150.93
2019-01-25T02:51:55.326Z,153.73
2019-01-25T02:54:22.694Z,168.30
2019-01-25T02:56:50.145Z,147.97
2019-01-25T02:59:17.531Z,164.80
2019-01-25T03:01:45.324Z,163.23
2019-01-25T03:04:12.926Z,150.73
2019-01-25T03:06:40.921Z,173.87
2019-01-25T03:09:09.588Z,159.27
2019-01-25T03:11:37.842Z,152.20
2019-01-25T03:14:05.513Z,151.07
2019-01-25T03:16:33.098Z,150.70
2019-01-25T03:19:01.347Z,154.33
2019-01-25T03:21:28.875Z,149.67
2019-01-25T03:23:56.270Z,155.00
2019-01-25T03:26:23.790Z,166.13
2019-01-25T03:28:52.487Z,156.90
2019-01-25T03:31:20.102Z,157.13
2019-01-25T03:33:47.594Z,153.43
2019-01-25T03:36:15.214Z,157.27
2019-01-25T03:38:42.854Z,157.30
2019-01-25T03:41:10.338Z,146.40
2019-01-25T03:43:37.798Z,152.13
2019-01-25T03:46:05.485Z,154.43
2019-01-25T03:48:33.194Z,161.77
2019-01-25T03:51:01.563Z,150.47
2019-01-25T03:53:29.156Z,152.47
2019-01-25T03:55:57.127Z,160.17
2019-01-25T03:58:24.824Z,173.73
2019-01-25T04:00:52.449Z,159.17
2019-01-25T04:03:21.261Z,159.57
2019-01-25T04:05:50.982Z,156.73
2019-01-25T04:08:18.815Z,157.63
2019-01-25T04:10:46.983Z,151.40
2019-01-25T04:13:14.379Z,156.67
2019-01-25T04:15:42.129Z,157.23
2019-01-25T04:18:09.565Z,153.60
2019-01-25T04:22:57.408Z,148.90
2019-01-25T04:25:25.446Z,151.17
2019-01-25T04:27:52.931Z,149.63
2019-01-25T04:30:29.022Z,162.40
2019-01-25T04:32:56.942Z,152.57
2019-01-25T04:35:24.485Z,145.23
2019-01-25T04:37:52.177Z,157.07
2019-01-25T04:40:20.656Z,158.70
2019-01-25T04:42:48.363Z,159.20
2019-01-25T04:45:17.741Z,156.97
2019-01-25T04:47:45.482Z,159.47
2019-01-25T04:50:19.344Z,151.57
2019-01-25T04:52:48.562Z,155.63
2019-01-25T04:55:22.075Z,151.07
2019-01-25T04:57:49.917Z,154.73
2019-01-25T05:00:19.496Z,151.23
2019-01-25T05:02:56.087Z,164.10
2019-01-25T05:05:23.882Z,145.20
2019-01-25T05:08:08.557Z,156.83
2019-01-25T05:10:36.270Z,143.37
2019-01-25T05:13:04.259Z,153.00
2019-01-25T05:15:31.888Z,145.70
2019-01-25T05:17:59.474Z,156.10
2019-01-25T05:20:27.180Z,151.13
2019-01-25T05:22:57.140Z,156.53
2019-01-25T05:25:25.981Z,152.20
2019-01-25T05:27:53.597Z,154.80
2019-01-25T05:30:21.502Z,149.13
2019-01-25T05:32:49.269Z,166.60
2019-01-25T05:35:16.909Z,148.87
2019-01-25T05:37:44.654Z,155.63
2019-01-25T05:40:21.769Z,147.67
2019-01-25T05:42:49.319Z,162.10
2019-01-25T05:45:17.084Z,145.73
2019-01-25T05:47:44.623Z,158.43
2019-01-25T05:50:12.447Z,148.13
2019-01-25T05:52:40.305Z,152.30
2019-01-25T05:55:17.344Z,143.53
2019-01-25T05:57:44.870Z,154.37
2019-01-25T06:00:13.075Z,145.40
2019-01-25T06:02:40.901Z,161.70
2019-01-25T06:05:09.845Z,145.70
2019-01-25T06:07:37.622Z,155.13
2019-01-25T06:10:05.638Z,147.93
2019-01-25T06:12:33.065Z,159.67
2019-01-25T06:15:00.690Z,145.67
2019-01-25T06:17:28.353Z,149.53
2019-01-25T06:19:55.950Z,141.80
2019-01-25T06:22:23.428Z,155.67
2019-01-25T06:24:51.153Z,143.77
2019-01-25T06:27:18.787Z,155.10
2019-01-25T06:29:47.284Z,140.90
2019-01-25T06:32:14.875Z,161.43
2019-01-25T06:34:42.463Z,148.43
2019-01-25T06:37:09.971Z,157.93
2019-01-25T06:39:38.690Z,151.63
2019-01-25T06:42:06.426Z,150.17
2019-01-25T06:44:33.916Z,139.17
2019-01-25T06:47:01.287Z,145.03
2019-01-25T06:49:28.731Z,141.83
2019-01-25T06:51:56.350Z,143.80
2019-01-25T06:54:23.878Z,143.67
2019-01-25T06:56:51.308Z,140.13
2019-01-25T06:59:32.789Z,150.37
2019-01-25T07:02:22.630Z,149.27
2019-01-25T07:04:50.678Z,145.33
2019-01-25T07:07:24.141Z,165.90
2019-01-25T07:09:52.585Z,143.10
2019-01-25T07:12:20.238Z,159.03
2019-01-25T07:14:47.664Z,144.17
2019-01-25T07:17:17.244Z,162.13
2019-01-25T07:19:44.999Z,158.40
2019-01-25T07:22:14.367Z,160.57
2019-01-25T07:24:56.913Z,150.00
2019-01-25T07:27:20.127Z,157.37
2019-01-25T07:29:48.281Z,140.47
2019-01-25T07:32:16.013Z,149.70
2019-01-25T07:34:44.143Z,149.13
2019-01-25T07:37:12.026Z,161.57
2019-01-25T07:39:39.438Z,152.13
2019-01-25T07:42:07.165Z,160.20
2019-01-25T07:44:34.746Z,148.07
2019-01-25T07:47:02.525Z,154.43
2019-01-25T07:49:30.286Z,151.13
2019-01-25T07:51:58.266Z,153.73
2019-01-25T07:54:25.942Z,151.83
2019-01-25T07:56:53.548Z,145.07
2019-01-25T07:59:20.959Z,155.93
2019-01-25T08:01:48.513Z,148.87
2019-01-25T08:04:16.334Z,154.70
2019-01-25T08:06:43.853Z,150.27
2019-01-25T08:09:11.748Z,151.83
2019-01-25T08:11:39.456Z,150.93
2019-01-25T08:14:07.160Z,158.60
2019-01-25T08:16:34.966Z,154.03
2019-01-25T08:19:02.627Z,156.53
2019-01-25T08:21:30.569Z,153.80
2019-01-25T08:23:58.301Z,152.40
2019-01-25T08:26:26.097Z,148.13
2019-01-25T08:28:54.849Z,152.23
2019-01-25T08:31:22.463Z,149.83
2019-01-25T08:33:50.147Z,158.03
2019-01-25T08:36:19.058Z,155.00
2019-01-25T08:38:46.794Z,145.37
2019-01-25T08:41:14.712Z,163.53
2019-01-25T08:43:42.531Z,160.50
2019-01-25T08:46:10.213Z,168.13
2019-01-25T08:48:38.277Z,165.20
2019-01-25T08:51:06.505Z,154.57
2019-01-25T08:53:34.223Z,164.60
2019-01-25T08:56:01.923Z,164.30
2019-01-25T08:58:29.618Z,152.00
2019-01-25T09:00:57.081Z,160.93
2019-01-25T09:03:24.827Z,166.93
2019-01-25T09:05:52.472Z,159.63
2019-01-25T09:08:20.258Z,171.73
2019-01-25T09:10:47.957Z,164.50
2019-01-25T09:13:15.396Z,165.77
2019-01-25T09:15:43.077Z,157.83
2019-01-25T09:18:10.744Z,161.00
2019-01-25T09:20:38.557Z,164.47
2019-01-25T09:23:06.826Z,162.13
2019-01-25T09:25:34.556Z,176.07
2019-01-25T09:28:02.200Z,170.30
2019-01-25T09:30:29.765Z,165.07
2019-01-25T09:32:57.604Z,176.40
2019-01-25T09:35:25.285Z,155.03
2019-01-25T09:37:54.565Z,184.40
2019-01-25T09:40:30.292Z,180.67
2019-01-25T09:42:58.987Z,185.77
2019-01-25T09:45:29.624Z,184.83
2019-01-25T09:48:11.690Z,186.60
2019-01-25T09:50:39.535Z,176.37
2019-01-25T09:53:07.184Z,163.07
2019-01-25T09:55:35.090Z,172.23
2019-01-25T09:58:06.433Z,185.83
2019-01-25T10:00:42.749Z,164.30
2019-01-25T10:03:10.283Z,176.37
2019-01-25T10:05:38.185Z,179.33
2019-01-25T10:08:05.808Z,173.07
2019-01-25T10:10:33.651Z,161.60
2019-01-25T10:13:01.814Z,169.53
2019-01-25T10:15:30.079Z,156.77
2019-01-25T10:17:58.064Z,177.90
2019-01-25T10:20:26.281Z,164.73
2019-01-25T10:22:53.998Z,175.03
2019-01-25T10:25:22.853Z,165.03
2019-01-25T10:27:50.553Z,172.97
2019-01-25T10:30:26.531Z,175.80
2019-01-25T10:32:56.306Z,165.83
2019-01-25T10:35:26.307Z,175.20
2019-01-25T10:37:53.963Z,165.37
2019-01-25T10:40:21.864Z,172.87
2019-01-25T10:42:53.489Z,199.93
2019-01-25T10:45:25.990Z,168.73
2019-01-25T10:47:53.756Z,177.97
2019-01-25T10:50:22.465Z,166.27
2019-01-25T10:52:50.234Z,192.73
2019-01-25T10:55:20.132Z,186.03
2019-01-25T10:57:50.145Z,191.20
2019-01-25T11:00:17.944Z,174.00
2019-01-25T11:02:45.455Z,205.37
2019-01-25T11:05:17.818Z,181.73
2019-01-25T11:07:45.157Z,204.67
2019-01-25T11:10:12.898Z,179.87
2019-01-25T11:12:40.501Z,209.53
2019-01-25T11:15:11.332Z,181.67
2019-01-25T11:17:41.080Z,194.93
2019-01-25T11:20:15.483Z,189.90
2019-01-25T11:22:43.504Z,195.47
2019-01-25T11:25:25.283Z,175.70
2019-01-25T11:27:53.370Z,195.57
2019-01-25T11:30:21.436Z,182.40
2019-01-25T11:32:49.100Z,177.30
2019-01-25T11:35:16.852Z,190.87
2019-01-25T11:37:45.555Z,199.20
2019-01-25T11:40:28.678Z,172.17
2019-01-25T11:42:56.197Z,188.67
2019-01-25T11:45:23.727Z,192.40
2019-01-25T11:47:51.384Z,195.73
2019-01-25T11:50:19.193Z,171.23
2019-01-25T11:52:46.752Z,189.63
2019-01-25T11:55:15.176Z,168.40
2019-01-25T11:57:43.125Z,182.63
2019-01-25T12:00:27.722Z,177.67
2019-01-25T12:02:55.748Z,175.70
2019-01-25T12:05:23.964Z,169.27
2019-01-25T12:07:52.027Z,179.90
2019-01-25T12:10:29.489Z,176.23
2019-01-25T12:13:02.494Z,187.40
2019-01-25T12:15:35.728Z,173.73
2019-01-25T12:18:08.199Z,182.73
2019-01-25T12:20:36.662Z,181.57
2019-01-25T12:23:12.022Z,183.30
2019-01-25T12:25:45.416Z,210.60
2019-01-25T12:28:14.612Z,178.30
2019-01-25T12:30:42.554Z,177.53
2019-01-25T12:33:10.231Z,186.53
2019-01-25T12:35:40.732Z,181.90
2019-01-25T12:38:10.083Z,201.30
2019-01-25T12:40:41.805Z,186.03
2019-01-25T12:43:09.586Z,193.20
2019-01-25T12:45:38.214Z,200.97
2019-01-25T12:48:08.790Z,186.60
2019-01-25T12:51:12.985Z,187.57
2019-01-25T12:53:41.093Z,173.50
2019-01-25T12:56:08.717Z,188.73
2019-01-25T12:58:36.916Z,183.57
2019-01-25T13:01:06.111Z,186.47
2019-01-25T13:03:34.443Z,177.23
2019-01-25T13:06:02.065Z,182.00
2019-01-25T13:08:30.039Z,184.77
2019-01-25T13:10:57.682Z,196.00
2019-01-25T13:13:31.545Z,190.40
2019-01-25T13:15:54.762Z,195.37
2019-01-25T13:18:22.630Z,192.33
2019-01-25T13:20:50.266Z,184.97
2019-01-25T13:23:20.604Z,176.50
2019-01-25T13:25:48.073Z,195.53
2019-01-25T13:28:15.726Z,177.57
2019-01-25T13:30:43.450Z,175.97
2019-01-25T13:33:11.289Z,178.60
2019-01-25T13:35:38.923Z,177.43
2019-01-25T13:38:06.933Z,178.20
2019-01-25T13:40:35.244Z,167.70
2019-01-25T13:43:03.205Z,181.30
2019-01-25T13:45:30.793Z,179.53
2019-01-25T13:47:58.263Z,188.03
2019-01-25T13:50:29.533Z,183.30
2019-01-25T13:52:58.392Z,186.07
2019-01-25T13:55:26.204Z,178.13
2019-01-25T13:57:53.782Z,196.37
2019-01-25T14:00:55.805Z,174.17
2019-01-25T14:03:23.417Z,182.70
2019-01-25T14:05:53.359Z,174.50
2019-01-25T14:08:20.885Z,173.83
2019-01-25T14:10:48.545Z,202.13
2019-01-25T14:13:16.194Z,179.50
2019-01-25T14:15:45.503Z,182.63
2019-01-25T14:18:17.714Z,183.47
2019-01-25T14:20:45.339Z,179.97
2019-01-25T14:23:12.926Z,174.90
2019-01-25T14:25:40.537Z,179.27
2019-01-25T14:28:08.274Z,194.17
2019-01-25T14:30:39.347Z,190.13
2019-01-25T14:33:07.212Z,187.93
2019-01-25T14:35:35.393Z,185.43
2019-01-25T14:38:04.295Z,200.27
2019-01-25T14:40:32.229Z,179.50
2019-01-25T14:43:00.534Z,196.03
2019-01-25T14:45:32.272Z,180.27
2019-01-25T14:48:00.424Z,192.37
2019-01-25T14:50:28.781Z,180.57
2019-01-25T14:52:56.606Z,200.87
2019-01-25T14:55:24.547Z,180.40
2019-01-25T14:57:52.303Z,198.63
2019-01-25T15:00:20.409Z,161.37
2019-01-25T15:02:48.161Z,203.60
2019-01-25T15:05:18.440Z,175.90
2019-01-25T15:07:46.023Z,192.40
2019-01-25T15:10:19.827Z,195.40
2019-01-25T15:12:48.815Z,188.77
2019-01-25T15:15:16.548Z,192.73
2019-01-25T15:17:46.085Z,199.80
2019-01-25T15:20:20.446Z,183.73
2019-01-25T15:23:35.142Z,189.57
2019-01-25T15:26:03.067Z,193.27
2019-01-25T15:28:30.945Z,180.13
2019-01-25T15:30:58.767Z,180.73
2019-01-25T15:33:27.958Z,197.47
2019-01-25T15:35:56.026Z,184.23
2019-01-25T15:38:23.546Z,187.30
2019-01-25T15:40:51.465Z,204.03
2019-01-25T15:43:20.576Z,204.00
2019-01-25T15:45:48.310Z,197.57
2019-01-25T15:48:15.962Z,197.97
2019-01-25T15:50:43.882Z,206.57
2019-01-25T15:53:12.450Z,207.73
2019-01-25T15:55:40.705Z,195.00
2019-01-25T15:58:09.275Z,205.90
2019-01-25T16:00:37.009Z,202.67
2019-01-25T16:03:05.324Z,193.47
2019-01-25T16:05:32.702Z,207.63
2019-01-25T16:08:00.343Z,211.43
2019-01-25T16:10:27.968Z,191.83
2019-01-25T16:12:56.232Z,199.47
2019-01-25T16:15:30.287Z,191.60
2019-01-25T16:18:00.080Z,199.83
2019-01-25T16:20:27.943Z,193.90
2019-01-25T16:22:56.924Z,199.13
2019-01-25T16:25:31.991Z,184.20
2019-01-25T16:27:59.824Z,192.70
2019-01-25T16:30:34.114Z,183.40
2019-01-25T16:33:02.732Z,186.27
2019-01-25T16:35:30.419Z,185.90
2019-01-25T16:37:58.154Z,187.97
2019-01-25T16:40:26.949Z,192.23
2019-01-25T16:42:54.329Z,181.90
2019-01-25T16:45:31.992Z,185.80
2019-01-25T16:47:59.491Z,194.50
2019-01-25T16:50:27.114Z,186.87
2019-01-25T16:52:54.637Z,200.03
2019-01-25T16:55:22.099Z,189.53
2019-01-25T16:57:49.797Z,194.80
2019-01-25T17:00:32.550Z,196.60
2019-01-25T17:03:01.057Z,187.90
2019-01-25T17:05:28.793Z,190.33
2019-01-25T17:07:56.561Z,198.83
2019-01-25T17:10:24.517Z,183.07
2019-01-25T17:12:52.433Z,193.93
2019-01-25T17:15:20.017Z,187.57
2019-01-25T17:17:47.614Z,179.27
2019-01-25T17:20:20.062Z,175.97
2019-01-25T17:22:45.607Z,199.37
2019-01-25T17:25:13.566Z,184.07
2019-01-25T17:27:41.277Z,200.00
2019-01-25T17:30:15.156Z,200.03
2019-01-25T17:32:42.810Z,196.23
2019-01-25T17:35:10.809Z,188.20
2019-01-25T17:37:38.311Z,192.43
2019-01-25T17:40:10.318Z,188.93
2019-01-25T17:42:38.725Z,193.83
2019-01-25T17:45:08.018Z,176.23
2019-01-25T17:47:36.575Z,185.07
2019-01-25T17:50:06.655Z,177.87
2019-01-25T17:52:34.491Z,203.93
2019-01-25T17:55:02.500Z,173.40
2019-01-25T17:57:30.865Z,182.57
2019-01-25T17:59:58.359Z,187.87
2019-01-25T18:02:25.879Z,189.77
2019-01-25T18:04:54.121Z,179.60
2019-01-25T18:07:21.610Z,196.07
2019-01-25T18:09:49.291Z,185.20
2019-01-25T18:12:17.291Z,190.50
2019-01-25T18:14:49.173Z,184.83
2019-01-25T18:17:14.347Z,187.03
2019-01-25T18:19:42.152Z,174.37
2019-01-25T18:22:09.729Z,184.77
2019-01-25T18:24:37.187Z,170.33
2019-01-25T18:27:04.849Z,162.80
2019-01-25T18:29:44.655Z,169.33
2019-01-25T18:32:12.148Z,190.03
2019-01-25T18:34:39.746Z,173.37
2019-01-25T18:37:07.425Z,176.60
2019-01-25T18:39:35.481Z,177.37
2019-01-25T18:42:05.767Z,177.23
2019-01-25T18:44:38.476Z,198.50
2019-01-25T18:47:09.967Z,193.20
2019-01-25T18:49:37.439Z,182.47
2019-01-25T18:52:06.241Z,184.87
2019-01-25T18:54:33.698Z,184.53
2019-01-25T18:57:01.331Z,188.93
2019-01-25T18:59:29.058Z,183.53
2019-01-25T19:01:57.468Z,183.73
2019-01-25T19:04:25.063Z,183.77
2019-01-25T19:06:55.279Z,189.47
2019-01-25T19:09:25.599Z,175.67
2019-01-25T19:11:53.007Z,171.80
2019-01-25T19:14:20.693Z,169.87
2019-01-25T19:16:48.123Z,179.57
2019-01-25T19:19:15.528Z,173.83
2019-01-25T19:21:43.386Z,175.00
2019-01-25T19:24:11.322Z,159.17
2019-01-25T19:26:39.347Z,170.37
2019-01-25T19:29:07.260Z,175.33
2019-01-25T19:31:36.438Z,182.67
2019-01-25T19:34:04.439Z,157.83
2019-01-25T19:36:33.954Z,171.70
2019-01-25T19:39:01.739Z,185.10
2019-01-25T19:41:31.249Z,171.50
2019-01-25T19:43:59.179Z,172.87
2019-01-25T19:46:27.127Z,179.73
2019-01-25T19:48:54.521Z,185.20
2019-01-25T19:51:22.143Z,174.13
2019-01-25T19:53:49.702Z,176.23
2019-01-25T19:56:17.317Z,192.60
2019-01-25T19:58:53.246Z,185.70
2019-01-25T20:01:20.934Z,179.63
2019-01-25T20:03:48.488Z,193.53
2019-01-25T20:06:17.144Z,195.53
2019-01-25T20:08:45.460Z,189.97
2019-01-25T20:11:12.852Z,200.50
2019-01-25T20:13:40.908Z,188.97
2019-01-25T20:16:08.719Z,179.47
2019-01-25T20:18:36.657Z,172.33
2019-01-25T20:21:04.244Z,182.17
2019-01-25T20:23:34.219Z,177.67
2019-01-25T20:26:03.429Z,166.07
2019-01-25T20:28:31.908Z,190.17
2019-01-25T20:30:59.576Z,173.10
2019-01-25T20:33:27.317Z,167.27
2019-01-25T20:35:54.864Z,171.10
2019-01-25T20:38:24.363Z,177.37
2019-01-25T20:40:51.846Z,156.90
2019-01-25T20:43:19.500Z,173.60
2019-01-25T20:45:46.998Z,167.50
2019-01-25T20:48:14.543Z,178.00
2019-01-25T20:50:42.983Z,176.60
2019-01-25T20:53:12.058Z,174.67
2019-01-25T20:55:39.935Z,177.60
2019-01-25T20:58:08.210Z,178.13
2019-01-25T21:00:37.213Z,168.57
2019-01-25T21:03:07.891Z,168.07
2019-01-25T21:05:35.455Z,166.17
2019-01-25T21:08:03.082Z,175.07
2019-01-25T21:10:30.655Z,169.30
2019-01-25T21:12:58.273Z,197.97
2019-01-25T21:15:26.035Z,178.33
2019-01-25T21:17:54.043Z,195.97
2019-01-25T21:20:34.512Z,173.47
2019-01-25T21:23:03.221Z,188.67
2019-01-25T21:25:31.375Z,175.57
2019-01-25T21:27:58.928Z,174.70
2019-01-25T21:30:29.147Z,175.63
2019-01-25T21:32:56.845Z,184.20
2019-01-25T21:35:24.564Z,178.83
2019-01-25T21:37:52.906Z,181.53
2019-01-25T21:40:23.329Z,178.30
2019-01-25T21:42:51.267Z,178.20
2019-01-25T21:45:21.525Z,189.03
2019-01-25T21:47:49.225Z,189.33
2019-01-25T21:50:19.738Z,176.73
2019-01-25T21:52:47.337Z,174.83
2019-01-25T21:55:15.101Z,193.67
2019-01-25T21:57:42.691Z,185.33
2019-01-25T22:00:14.907Z,171.33
2019-01-25T22:02:42.535Z,178.57
2019-01-25T22:05:10.232Z,163.90
2019-01-25T22:07:37.842Z,202.53
2019-01-25T22:10:10.817Z,190.07
2019-01-25T22:12:38.635Z,202.50
2019-01-25T22:15:07.668Z,190.10
2019-01-25T22:17:35.147Z,212.13
2019-01-25T22:20:05.898Z,185.80
2019-01-25T22:22:33.386Z,212.40
2019-01-25T22:25:00.965Z,191.30
2019-01-25T22:27:28.504Z,206.70
2019-01-25T22:29:55.966Z,200.23
2019-01-25T22:32:43.851Z,198.83
2019-01-25T22:35:11.509Z,199.80
2019-01-25T22:37:39.059Z,202.13
2019-01-25T22:40:11.049Z,191.77
2019-01-25T22:42:38.779Z,206.23
2019-01-25T22:45:09.606Z,209.53
2019-01-25T22:47:37.078Z,213.47
2019-01-25T22:50:08.067Z,194.73
2019-01-25T22:52:35.711Z,217.40
2019-01-25T22:55:05.681Z,212.27
2019-01-25T22:57:33.054Z,211.53
2019-01-25T23:00:00.522Z,191.40
2019-01-25T23:02:28.223Z,215.20
2019-01-25T23:05:18.916Z,181.83
2019-01-25T23:07:46.513Z,191.80
2019-01-25T23:10:17.446Z,195.00
2019-01-25T23:12:45.107Z,190.43
2019-01-25T23:15:17.358Z,184.97
2019-01-25T23:17:45.939Z,174.23
2019-01-25T23:22:41.567Z,171.57
2019-01-25T23:25:10.039Z,177.63
2019-01-25T23:27:37.606Z,190.77
2019-01-25T23:30:12.268Z,183.50
2019-01-25T23:32:39.956Z,198.00
2019-01-25T23:35:07.609Z,182.30
2019-01-25T23:37:35.329Z,190.00
2019-01-25T23:40:05.664Z,195.53
2019-01-25T23:42:33.149Z,194.57
2019-01-25T23:45:03.661Z,172.40
2019-01-25T23:47:31.318Z,180.67
2019-01-25T23:49:59.001Z,192.20
2019-01-25T23:52:26.352Z,197.50
2019-01-25T23:54:53.899Z,176.17
2019-01-25T23:57:21.454Z,200.87
2019-01-25T23:59:48.898Z,182.10
